createdAt,value
2023-01-17T00:02:13.504Z,55.95
2023-01-17T00:05:43.218Z,44.70
2023-01-17T00:08:58.375Z,52.30
2023-01-17T00:12:07.372Z,41.97
2023-01-17T00:15:44.708Z,38.73
2023-01-17T00:18:53.292Z,42.60
2023-01-17T00:22:02.530Z,41.60
2023-01-17T00:25:53.378Z,39.63
2023-01-17T00:29:18.288Z,38.88
2023-01-17T00:32:26.952Z,32.93
2023-01-17T00:35:44.417Z,33.40
2023-01-17T00:38:46.441Z,44.25
2023-01-17T00:42:01.292Z,36.08
2023-01-17T00:45:45.276Z,45.35
2023-01-17T00:49:00.311Z,31.30
2023-01-17T00:52:15.344Z,33.23
2023-01-17T00:55:50.404Z,33.72
2023-01-17T00:59:05.292Z,31.15
2023-01-17T01:06:08.332Z,31.87
2023-01-17T01:09:32.328Z,37.80
2023-01-17T01:12:34.120Z,33.70
2023-01-17T01:15:48.334Z,32.45
2023-01-17T01:18:56.296Z,28.00
2023-01-17T01:22:04.900Z,35.97
2023-01-17T01:25:34.004Z,30.10
2023-01-17T01:28:41.947Z,33.67
2023-01-17T01:31:50.296Z,37.95
2023-01-17T01:35:31.637Z,41.88
2023-01-17T01:38:47.502Z,35.70
2023-01-17T01:41:55.256Z,31.10
2023-01-17T01:45:28.603Z,34.30
2023-01-17T01:48:53.331Z,33.15
2023-01-17T01:52:10.341Z,26.62
2023-01-17T01:55:34.548Z,32.70
2023-01-17T01:58:43.382Z,26.43
2023-01-17T02:02:02.310Z,24.98
2023-01-17T02:08:55.081Z,27.83
2023-01-17T02:12:04.299Z,24.73
2023-01-17T02:15:48.275Z,30.50
2023-01-17T02:19:20.625Z,26.73
2023-01-17T02:23:02.350Z,29.67
2023-01-17T02:26:30.824Z,32.80
2023-01-17T02:30:13.357Z,31.97
2023-01-17T02:33:32.650Z,29.63
2023-01-17T02:36:49.479Z,31.95
2023-01-17T02:40:11.306Z,28.62
2023-01-17T02:43:22.664Z,32.83
2023-01-17T02:46:37.305Z,34.40
2023-01-17T02:49:46.339Z,31.57
2023-01-17T02:53:10.861Z,31.20
2023-01-17T02:56:44.393Z,35.22
2023-01-17T03:00:20.261Z,29.02
2023-01-17T03:03:42.381Z,25.93
2023-01-17T03:07:28.415Z,33.10
2023-01-17T03:10:43.330Z,27.77
2023-01-17T03:18:22.330Z,23.62
2023-01-17T03:21:37.319Z,24.40
2023-01-17T03:28:30.346Z,20.35
2023-01-17T03:31:40.875Z,24.87
2023-01-17T03:38:53.414Z,24.67
2023-01-17T03:43:02.379Z,28.27
2023-01-17T03:46:28.348Z,25.37
2023-01-17T03:49:30.082Z,26.27
2023-01-17T03:52:44.301Z,29.00
2023-01-17T03:55:53.056Z,26.33
2023-01-17T03:59:01.340Z,21.37
2023-01-17T04:02:09.962Z,22.87
2023-01-17T04:05:38.336Z,21.17
2023-01-17T04:09:00.411Z,22.62
2023-01-17T04:12:11.351Z,20.73
2023-01-17T04:15:40.293Z,21.27
2023-01-17T04:18:48.927Z,20.85
2023-01-17T04:21:57.348Z,21.87
2023-01-17T04:25:54.554Z,26.80
2023-01-17T04:29:09.481Z,21.70
2023-01-17T04:32:11.472Z,17.50
2023-01-17T04:35:41.384Z,16.80
2023-01-17T04:38:56.460Z,17.80
2023-01-17T04:41:58.200Z,22.33
2023-01-17T04:45:39.398Z,17.73
2023-01-17T04:48:48.053Z,23.23
2023-01-17T04:51:57.419Z,16.90
2023-01-17T04:55:32.522Z,19.67
2023-01-17T04:58:41.328Z,23.02
2023-01-17T05:01:50.028Z,19.27
2023-01-17T05:05:31.400Z,16.53
2023-01-17T05:08:56.342Z,12.75
2023-01-17T05:12:14.470Z,12.10
2023-01-17T05:15:40.769Z,13.05
2023-01-17T05:18:49.340Z,15.07
2023-01-17T05:22:04.446Z,12.30
2023-01-17T05:25:48.380Z,11.95
2023-01-17T05:28:56.854Z,13.43
2023-01-17T05:32:05.462Z,10.85
2023-01-17T05:35:34.152Z,11.87
2023-01-17T05:38:43.383Z,11.97
2023-01-17T05:45:42.437Z,10.07
2023-01-17T05:53:12.451Z,17.60
2023-01-17T05:56:20.908Z,13.23
2023-01-17T05:59:37.063Z,13.88
2023-01-17T06:02:55.481Z,13.88
2023-01-17T06:06:10.339Z,14.90
2023-01-17T06:09:18.708Z,11.97
2023-01-17T06:12:33.494Z,12.27
2023-01-17T06:15:42.949Z,12.15
2023-01-17T06:18:57.419Z,10.60
2023-01-17T06:22:36.444Z,14.50
2023-01-17T06:30:08.522Z,8.33
2023-01-17T06:37:18.387Z,6.18
2023-01-17T06:40:36.450Z,5.93
2023-01-17T06:56:20.136Z,7.62
2023-01-17T06:59:41.700Z,8.55
2023-01-17T21:32:31.688Z,3.50
2023-01-17T21:39:24.868Z,3.72
2023-01-17T21:46:29.890Z,4.93
2023-01-17T21:49:49.901Z,6.15
2023-01-17T21:53:05.959Z,3.80
2023-01-17T21:56:21.889Z,5.57
2023-01-17T22:07:21.882Z,4.25
2023-01-17T22:10:37.838Z,3.47
2023-01-17T22:18:02.935Z,6.03
2023-01-17T22:29:08.044Z,3.40
2023-01-17T22:32:24.889Z,3.75
2023-01-17T22:39:39.916Z,3.95
2023-01-17T22:43:03.489Z,3.42
2023-01-17T22:47:05.980Z,4.10
2023-01-17T22:50:22.897Z,2.97
2023-01-17T22:57:27.852Z,3.97
2023-01-17T23:00:49.942Z,1.87
2023-01-17T23:12:11.848Z,4.03
2023-01-17T23:26:47.020Z,3.28
2023-01-17T23:30:14.755Z,3.73
2023-01-17T23:33:29.965Z,3.45
2023-01-17T23:39:58.135Z,3.95
2023-01-17T23:40:53.113Z,4.95
2023-01-17T23:48:02.904Z,3.73
2023-01-17T23:51:18.910Z,3.80
2023-01-17T23:58:34.887Z,3.45
